Terminal Aerodrome Forecast
Issued by NWS North Platte, NE

Home | Current Version | Previous Version | Text Only | Print | Product List | Glossary On
Versions: 1 2 3 4 5 6 7 8 9 10 11 12 13 14 15 16 17 18 19 20 21 22 23 24 25 26 27 28 29 30 31 32
000
FTUS43 KLBF 211740
TAFLBF
TAF
KLBF 211740Z 2118/2218 01012G20KT P6SM BKN150
     FM212100 36015G23KT P6SM BKN045
     FM220100 34015G24KT P6SM VCSH BKN023
     FM220500 33018G24KT P6SM OVC015=

USA.gov is the U.S. government's official web portal to all federal, state and local government web resources and services.